Time;durP1;ratioP1;P1;durP2;ratioP2;P2;SDS_P1;SDS_P2;PMS_P1;PMS_P2;Temp;Humidity;BMP_temperature;BMP_pressure;BME280_temperature;BME280_humidity;BME280_pressure;Samples;Min_cycle;Max_cycle;Signal;HPM_P1;HPM_P2
2022/09/14 00:01:38;;;;;;;1.20;0.80;;;19.50;62.70;;;;;;5023511;28;20196;-75
2022/09/14 00:04:11;;;;;;;3.63;1.10;;;19.50;62.90;;;;;;5028206;28;20278;-74
2022/09/14 00:06:40;;;;;;;1.70;0.90;;;19.50;63.00;;;;;;5026720;28;20297;-75
2022/09/14 00:09:13;;;;;;;2.33;1.00;;;19.40;63.20;;;;;;5028935;28;20220;-76
2022/09/14 00:11:41;;;;;;;5.77;1.13;;;19.40;63.30;;;;;;5021953;28;20266;-74
2022/09/14 00:14:11;;;;;;;4.80;1.10;;;19.30;63.40;;;;;;5025686;28;20234;-75
2022/09/14 00:16:41;;;;;;;4.30;1.10;;;19.30;63.50;;;;;;5026732;28;20196;-75
2022/09/14 00:19:17;;;;;;;2.20;1.00;;;19.30;63.80;;;;;;5022723;28;20263;-75
2022/09/14 00:21:45;;;;;;;2.37;1.10;;;19.20;64.00;;;;;;5021525;28;20219;-75
2022/09/14 00:24:13;;;;;;;2.37;1.00;;;19.20;64.20;;;;;;5030321;28;20523;-75
2022/09/14 00:26:42;;;;;;;3.53;1.10;;;19.10;64.30;;;;;;5026551;28;20247;-75
2022/09/14 00:29:11;;;;;;;3.57;1.10;;;19.10;64.40;;;;;;5046108;28;20215;-74
2022/09/14 00:31:40;;;;;;;1.77;1.00;;;19.00;64.60;;;;;;5046350;28;20299;-74
2022/09/14 00:34:11;;;;;;;2.97;1.07;;;19.00;64.80;;;;;;5045741;28;20678;-74
2022/09/14 00:36:43;;;;;;;5.57;0.87;;;19.00;64.80;;;;;;5046756;28;20651;-75
2022/09/14 00:39:12;;;;;;;5.27;1.37;;;19.00;65.20;;;;;;5044702;28;20639;-75
2022/09/14 00:41:45;;;;;;;2.63;1.30;;;18.90;65.40;;;;;;5044776;28;20262;-76
2022/09/14 00:44:51;;;;;;;2.43;0.90;;;18.80;65.40;;;;;;5028772;28;20199;-75
2022/09/14 00:47:21;;;;;;;1.33;0.90;;;18.80;65.70;;;;;;5040626;28;20597;-75
2022/09/14 00:49:49;;;;;;;1.30;0.60;;;18.80;66.00;;;;;;5042984;28;20218;-76
2022/09/14 00:52:21;;;;;;;1.67;0.90;;;18.70;65.90;;;;;;5047347;28;20227;-74
2022/09/14 00:54:53;;;;;;;2.53;1.10;;;18.60;66.30;;;;;;5047194;28;20215;-75
2022/09/14 00:57:22;;;;;;;1.67;0.80;;;18.60;66.40;;;;;;5042765;28;20767;-75
2022/09/14 00:59:52;;;;;;;2.50;0.83;;;18.60;66.50;;;;;;5038917;28;20614;-75
2022/09/14 01:02:25;;;;;;;2.60;0.97;;;18.50;66.50;;;;;;5047955;28;20195;-75
2022/09/14 01:04:54;;;;;;;2.43;1.00;;;18.50;66.60;;;;;;5048964;28;20245;-75
2022/09/14 01:07:32;;;;;;;2.50;1.07;;;18.50;66.60;;;;;;5044245;28;20260;-74
2022/09/14 01:10:09;;;;;;;3.60;0.90;;;18.50;67.00;;;;;;5040692;28;20248;-75
2022/09/14 01:12:53;;;;;;;1.90;1.00;;;18.40;67.10;;;;;;5041174;28;20333;-75
2022/09/14 01:15:27;;;;;;;2.90;0.87;;;18.40;67.20;;;;;;5048810;28;20215;-75
2022/09/14 01:18:07;;;;;;;2.63;0.80;;;18.30;67.40;;;;;;5046390;28;20230;-75
2022/09/14 01:20:38;;;;;;;1.23;0.80;;;18.40;67.70;;;;;;5047234;28;20251;-74
2022/09/14 01:23:17;;;;;;;4.57;1.30;;;18.30;67.70;;;;;;5045171;28;20191;-74
2022/09/14 01:26:15;;;;;;;1.77;0.83;;;18.30;67.80;;;;;;5047449;28;20282;-75
2022/09/14 01:28:51;;;;;;;1.10;0.97;;;18.20;68.00;;;;;;5045582;28;20262;-74
2022/09/14 01:31:27;;;;;;;5.17;1.07;;;18.20;68.00;;;;;;5041886;28;20289;-75
2022/09/14 01:34:07;;;;;;;3.93;0.93;;;18.10;68.30;;;;;;5043076;28;20194;-75
2022/09/14 01:36:39;;;;;;;7.80;1.00;;;18.10;68.40;;;;;;5043526;28;20229;-75
2022/09/14 01:39:08;;;;;;;2.27;0.80;;;18.10;68.40;;;;;;5045196;28;20310;-75
2022/09/14 01:41:38;;;;;;;2.33;1.00;;;18.10;68.80;;;;;;5044327;28;20191;-75
2022/09/14 01:44:12;;;;;;;3.23;1.10;;;18.00;68.80;;;;;;5049450;28;20214;-74
2022/09/14 01:46:43;;;;;;;3.93;1.03;;;18.00;69.00;;;;;;5047430;28;20260;-74
2022/09/14 01:49:16;;;;;;;3.67;1.27;;;18.00;69.10;;;;;;5047549;28;20226;-75
2022/09/14 01:51:47;;;;;;;2.83;1.33;;;18.00;69.10;;;;;;5041562;28;20282;-75
2022/09/14 01:54:21;;;;;;;2.77;1.10;;;18.00;69.20;;;;;;5046737;28;20226;-74
2022/09/14 01:56:53;;;;;;;4.73;1.27;;;17.90;69.20;;;;;;5039638;28;20240;-74
2022/09/14 01:59:26;;;;;;;4.20;1.47;;;17.90;69.20;;;;;;5042868;28;20703;-74
2022/09/14 02:01:59;;;;;;;5.03;1.40;;;17.90;69.20;;;;;;5040144;28;20651;-74
2022/09/14 02:04:33;;;;;;;3.97;1.10;;;17.90;69.30;;;;;;5046566;28;20321;-75
2022/09/14 02:07:01;;;;;;;3.23;1.40;;;17.90;69.40;;;;;;5048179;28;20269;-75
2022/09/14 02:09:29;;;;;;;3.37;1.40;;;17.80;69.40;;;;;;5048502;28;20227;-75
2022/09/14 02:12:01;;;;;;;2.53;1.30;;;17.80;69.50;;;;;;5043195;28;20191;-78
2022/09/14 02:14:31;;;;;;;2.67;1.27;;;17.80;69.60;;;;;;5042742;28;20249;-75
2022/09/14 02:17:00;;;;;;;6.90;1.53;;;17.80;69.70;;;;;;5042221;28;20214;-74
2022/09/14 02:19:34;;;;;;;3.67;1.37;;;17.70;69.70;;;;;;5045305;28;20218;-75
2022/09/14 02:22:03;;;;;;;4.30;1.30;;;17.70;69.90;;;;;;5047217;28;20278;-75
2022/09/14 02:24:32;;;;;;;2.87;1.50;;;17.70;70.00;;;;;;5047279;28;20199;-75
2022/09/14 02:27:01;;;;;;;4.10;1.30;;;17.70;70.10;;;;;;5041588;28;20654;-76
2022/09/14 02:29:31;;;;;;;1.83;1.20;;;17.60;70.10;;;;;;5064721;28;20233;-75
2022/09/14 02:32:10;;;;;;;2.50;1.10;;;17.60;70.40;;;;;;5066571;28;20580;-75
2022/09/14 02:34:46;;;;;;;3.60;1.60;;;17.60;70.50;;;;;;5066874;28;20190;-75
2022/09/14 02:37:19;;;;;;;4.87;1.50;;;17.60;70.70;;;;;;5064204;28;20182;-75
2022/09/14 02:39:55;;;;;;;3.47;2.10;;;17.50;70.70;;;;;;5059947;28;20680;-75
2022/09/14 02:42:33;;;;;;;5.57;1.57;;;17.50;70.80;;;;;;5063406;28;20190;-75
2022/09/14 02:45:11;;;;;;;2.47;1.40;;;17.50;71.80;;;;;;5056420;28;20277;-76
2022/09/14 02:47:54;;;;;;;4.33;1.80;;;17.40;71.00;;;;;;5067443;28;20210;-75
2022/09/14 02:50:29;;;;;;;4.80;1.57;;;17.40;71.10;;;;;;5061223;28;20572;-76
2022/09/14 02:53:07;;;;;;;4.23;1.70;;;17.40;71.10;;;;;;5065313;28;20294;-75
2022/09/14 02:55:40;;;;;;;4.23;1.67;;;17.40;71.30;;;;;;5064172;28;20643;-75
2022/09/14 02:58:10;;;;;;;3.97;1.40;;;17.40;71.40;;;;;;5060363;28;20277;-75
2022/09/14 03:00:41;;;;;;;4.10;1.70;;;17.30;71.40;;;;;;5067052;28;20186;-76
2022/09/14 03:03:12;;;;;;;3.43;1.53;;;17.30;71.70;;;;;;5060875;28;20286;-76
2022/09/14 03:05:40;;;;;;;6.07;1.80;;;17.30;71.90;;;;;;5063798;28;20613;-76
2022/09/14 03:08:10;;;;;;;4.07;1.50;;;17.20;71.80;;;;;;5059827;28;20713;-75
2022/09/14 03:10:41;;;;;;;4.60;1.77;;;17.20;71.90;;;;;;5065041;28;20194;-75
2022/09/14 03:13:09;;;;;;;2.63;1.40;;;17.20;71.90;;;;;;5061906;28;20186;-75
2022/09/14 03:15:40;;;;;;;5.80;1.77;;;17.20;72.00;;;;;;5066394;28;20256;-75
2022/09/14 03:18:09;;;;;;;3.70;1.93;;;17.10;72.00;;;;;;5069168;28;20260;-75
2022/09/14 03:20:42;;;;;;;4.40;1.57;;;17.10;72.10;;;;;;5064974;28;20256;-75
2022/09/14 03:23:11;;;;;;;8.03;1.80;;;17.10;72.10;;;;;;5062606;28;20260;-76
2022/09/14 03:25:41;;;;;;;4.97;1.90;;;17.10;72.20;;;;;;5068980;28;20720;-75
2022/09/14 03:28:10;;;;;;;3.50;1.67;;;17.10;72.30;;;;;;5063825;28;20887;-75
2022/09/14 03:30:40;;;;;;;5.67;2.27;;;17.00;72.30;;;;;;5066975;28;22297;-76
2022/09/14 03:33:08;;;;;;;8.40;1.97;;;17.00;72.30;;;;;;5071904;28;20198;-76
2022/09/14 03:35:36;;;;;;;5.63;1.90;;;17.00;72.40;;;;;;5065446;28;20485;-75
2022/09/14 03:38:05;;;;;;;7.20;1.70;;;17.00;72.50;;;;;;5069613;28;20277;-75
2022/09/14 03:40:33;;;;;;;8.23;2.10;;;17.00;72.50;;;;;;5066385;28;20555;-75
2022/09/14 03:43:02;;;;;;;8.17;2.07;;;17.00;72.60;;;;;;5064496;28;20319;-76
2022/09/14 03:45:30;;;;;;;4.07;1.47;;;17.00;72.70;;;;;;5067226;28;20227;-75
2022/09/14 03:48:00;;;;;;;4.77;1.70;;;16.90;72.70;;;;;;5066168;28;20241;-76
2022/09/14 03:50:28;;;;;;;5.00;2.07;;;17.00;72.80;;;;;;5064758;28;20627;-75
2022/09/14 03:52:56;;;;;;;6.27;2.20;;;16.90;72.80;;;;;;5063863;28;20597;-76
2022/09/14 03:55:25;;;;;;;7.33;2.50;;;16.90;72.90;;;;;;5068397;28;20194;-76
2022/09/14 03:57:54;;;;;;;7.67;2.40;;;16.90;73.10;;;;;;5063223;28;20209;-76
2022/09/14 04:00:23;;;;;;;5.20;2.23;;;16.90;73.90;;;;;;5065426;28;20227;-78
2022/09/14 04:02:52;;;;;;;12.70;2.83;;;16.80;73.10;;;;;;5066974;28;20218;-78
2022/09/14 04:05:21;;;;;;;6.60;2.67;;;16.80;73.10;;;;;;5063464;28;20194;-76
2022/09/14 04:07:50;;;;;;;9.73;3.07;;;16.80;73.20;;;;;;5063946;28;20470;-77
2022/09/14 04:10:18;;;;;;;6.87;2.50;;;16.80;73.20;;;;;;5062526;28;20619;-75
2022/09/14 04:12:46;;;;;;;10.07;2.50;;;16.80;73.40;;;;;;5069523;28;20225;-76
2022/09/14 04:15:15;;;;;;;4.83;2.50;;;16.80;73.40;;;;;;5066721;28;20252;-75
2022/09/14 04:17:43;;;;;;;5.13;2.37;;;16.80;73.50;;;;;;5065124;28;20190;-75
2022/09/14 04:20:11;;;;;;;12.30;2.30;;;16.70;73.70;;;;;;5065625;28;20291;-78
2022/09/14 04:22:41;;;;;;;4.30;2.23;;;16.70;73.70;;;;;;5062523;28;20195;-76
2022/09/14 04:25:10;;;;;;;5.50;2.23;;;16.70;73.70;;;;;;5068610;28;20198;-76
2022/09/14 04:27:38;;;;;;;4.67;2.27;;;16.70;74.00;;;;;;5066950;28;20753;-75
2022/09/14 04:30:07;;;;;;;9.00;2.97;;;16.70;74.00;;;;;;5066879;28;20191;-76
2022/09/14 04:32:35;;;;;;;6.83;2.60;;;16.70;74.10;;;;;;5064337;28;20209;-76
2022/09/14 04:35:04;;;;;;;6.00;2.33;;;16.70;74.30;;;;;;5070906;28;20191;-76
2022/09/14 04:37:32;;;;;;;5.23;1.90;;;16.70;74.60;;;;;;5065983;28;20199;-75
2022/09/14 04:40:02;;;;;;;6.27;2.20;;;16.70;74.60;;;;;;5066287;28;20241;-75
2022/09/14 04:42:31;;;;;;;4.87;2.10;;;16.70;74.60;;;;;;5061796;28;20198;-76
2022/09/14 04:44:59;;;;;;;9.07;2.57;;;16.70;75.50;;;;;;5057384;28;20200;-75
2022/09/14 04:47:29;;;;;;;7.83;2.43;;;16.70;74.70;;;;;;5066940;28;20925;-75
2022/09/14 04:49:57;;;;;;;6.23;1.90;;;16.70;74.70;;;;;;5064847;28;20245;-75
2022/09/14 04:52:26;;;;;;;7.30;2.00;;;16.80;74.90;;;;;;5061632;28;20190;-75
2022/09/14 04:54:54;;;;;;;4.63;2.00;;;16.80;75.10;;;;;;5070290;28;20218;-75
2022/09/14 04:57:24;;;;;;;6.67;1.90;;;16.80;75.00;;;;;;5069360;28;20248;-77
2022/09/14 04:59:52;;;;;;;8.80;2.30;;;16.90;75.30;;;;;;5058845;28;20190;-75
2022/09/14 05:02:20;;;;;;;6.13;2.00;;;16.90;75.80;;;;;;5070548;28;20194;-75
2022/09/14 05:04:49;;;;;;;6.80;2.03;;;16.90;75.80;;;;;;5069436;28;20198;-75
2022/09/14 05:07:18;;;;;;;3.13;1.70;;;16.90;75.50;;;;;;5067972;28;20285;-76
2022/09/14 05:09:46;;;;;;;6.70;2.40;;;17.00;75.70;;;;;;5067689;28;20218;-77
2022/09/14 05:12:14;;;;;;;8.10;2.23;;;17.00;75.70;;;;;;5067237;28;20285;-75
2022/09/14 05:14:44;;;;;;;8.10;2.20;;;17.00;75.80;;;;;;5067468;28;20305;-76
2022/09/14 05:17:13;;;;;;;7.93;3.00;;;17.10;75.70;;;;;;5063486;28;20192;-75
2022/09/14 05:19:43;;;;;;;7.10;2.33;;;17.10;75.70;;;;;;5071117;28;20209;-75
2022/09/14 05:22:12;;;;;;;6.37;2.20;;;17.20;75.60;;;;;;5064535;28;20195;-75
2022/09/14 05:24:41;;;;;;;5.87;2.80;;;17.20;75.70;;;;;;5069403;28;20575;-75
2022/09/14 05:27:10;;;;;;;6.57;2.33;;;17.30;75.70;;;;;;5068027;28;20707;-76
2022/09/14 05:29:39;;;;;;;7.47;3.10;;;17.30;75.50;;;;;;5067324;28;20225;-76
2022/09/14 05:32:08;;;;;;;8.83;2.47;;;17.30;75.40;;;;;;5064400;28;20255;-75
2022/09/14 05:34:37;;;;;;;4.07;2.23;;;17.40;75.40;;;;;;5067362;28;20214;-75
2022/09/14 05:37:05;;;;;;;4.77;2.23;;;17.50;75.40;;;;;;5069245;28;20191;-75
2022/09/14 05:39:33;;;;;;;3.37;1.87;;;17.50;75.20;;;;;;5074922;28;20216;-76
2022/09/14 05:42:02;;;;;;;5.40;2.60;;;17.50;75.20;;;;;;5069891;28;20191;-75
2022/09/14 05:44:30;;;;;;;4.30;1.90;;;17.60;75.20;;;;;;5071493;28;20205;-75
2022/09/14 05:46:58;;;;;;;4.93;2.37;;;17.70;75.20;;;;;;5062419;28;20242;-75
2022/09/14 05:49:29;;;;;;;4.57;1.80;;;17.80;75.30;;;;;;5067462;28;20260;-75
2022/09/14 05:51:57;;;;;;;5.33;2.37;;;17.80;75.10;;;;;;5067810;28;20277;-74
2022/09/14 05:54:26;;;;;;;4.63;2.50;;;17.90;75.00;;;;;;5072513;28;20190;-74
2022/09/14 05:56:54;;;;;;;8.10;2.47;;;17.90;75.00;;;;;;5067008;28;20229;-75
2022/09/14 05:59:22;;;;;;;4.17;1.80;;;18.00;74.90;;;;;;5064332;28;20190;-76
2022/09/14 06:01:51;;;;;;;4.07;1.80;;;18.10;74.90;;;;;;5061719;28;20218;-74
2022/09/14 06:04:19;;;;;;;5.80;2.30;;;18.20;75.00;;;;;;5066819;28;20308;-75
2022/09/14 06:06:49;;;;;;;6.70;1.93;;;18.20;74.90;;;;;;5067219;28;20222;-75
2022/09/14 06:09:37;;;;;;;8.27;2.20;;;18.30;74.90;;;;;;5062849;28;20218;-75
2022/09/14 06:12:06;;;;;;;7.60;1.90;;;18.40;74.90;;;;;;5067494;28;20251;-75
2022/09/14 06:14:34;;;;;;;5.70;2.10;;;18.40;74.70;;;;;;5064195;28;20698;-76
2022/09/14 06:17:04;;;;;;;6.60;2.50;;;18.60;74.70;;;;;;5065920;28;20194;-76
2022/09/14 06:19:32;;;;;;;5.30;2.20;;;18.60;74.50;;;;;;5070260;28;20251;-76
2022/09/14 06:22:02;;;;;;;5.63;2.00;;;18.70;74.40;;;;;;5068469;28;20195;-76
2022/09/14 06:24:30;;;;;;;6.33;1.80;;;18.80;74.40;;;;;;5062516;28;20264;-74
2022/09/14 06:26:59;;;;;;;5.83;2.00;;;18.90;74.30;;;;;;5069276;28;20265;-74
2022/09/14 06:29:27;;;;;;;3.40;1.50;;;19.00;74.10;;;;;;5068826;28;20230;-76
2022/09/14 06:31:55;;;;;;;3.87;1.80;;;19.00;73.90;;;;;;5068616;28;20190;-75
2022/09/14 06:34:24;;;;;;;3.93;1.50;;;19.10;73.90;;;;;;5066997;28;20197;-75
2022/09/14 06:36:52;;;;;;;3.70;1.80;;;19.10;73.90;;;;;;5058160;28;20602;-74
2022/09/14 06:39:23;;;;;;;7.27;2.83;;;19.20;73.90;;;;;;5062144;28;20652;-76
2022/09/14 06:41:52;;;;;;;6.13;2.07;;;19.30;74.00;;;;;;5068808;28;20273;-74
2022/09/14 06:44:20;;;;;;;3.90;1.70;;;19.30;73.80;;;;;;5064643;28;20221;-76
2022/09/14 06:46:48;;;;;;;6.13;1.83;;;19.40;73.50;;;;;;5068716;28;20190;-76
2022/09/14 06:49:19;;;;;;;4.07;2.07;;;19.50;73.40;;;;;;5069405;28;20217;-75
2022/09/14 06:51:48;;;;;;;3.20;1.33;;;19.50;73.30;;;;;;5066502;28;20273;-76
2022/09/14 06:54:17;;;;;;;8.10;2.23;;;19.60;73.10;;;;;;5065169;28;20280;-76
2022/09/14 06:56:47;;;;;;;3.33;1.87;;;19.60;72.90;;;;;;5069831;28;20222;-74
2022/09/14 06:59:17;;;;;;;5.80;1.90;;;19.70;72.70;;;;;;5071061;28;20225;-75
2022/09/14 07:01:48;;;;;;;7.23;2.10;;;19.80;72.50;;;;;;5071098;28;20204;-74
2022/09/14 07:04:16;;;;;;;6.27;2.17;;;19.90;72.40;;;;;;5068442;28;20673;-75
2022/09/14 07:06:47;;;;;;;4.33;2.20;;;19.90;72.10;;;;;;5068206;28;20798;-75
2022/09/14 07:09:16;;;;;;;6.90;2.30;;;20.00;71.80;;;;;;5069062;28;20217;-75
2022/09/14 07:11:46;;;;;;;4.15;2.10;;;20.00;71.60;;;;;;5067558;28;20237;-77
2022/09/14 07:14:15;;;;;;;4.35;1.92;;;20.10;71.50;;;;;;5062280;28;20279;-75
2022/09/14 07:16:44;;;;;;;5.23;2.20;;;20.20;71.40;;;;;;5070561;28;20252;-75
2022/09/14 07:19:14;;;;;;;10.10;2.03;;;20.20;71.10;;;;;;5064893;28;20187;-76
2022/09/14 07:21:43;;;;;;;8.90;1.80;;;20.30;70.70;;;;;;5057871;28;20220;-75
2022/09/14 07:24:13;;;;;;;4.03;1.60;;;20.40;70.80;;;;;;5065530;28;20292;-75
2022/09/14 07:26:43;;;;;;;6.10;2.00;;;20.40;70.80;;;;;;5071057;28;20774;-75
2022/09/14 07:29:14;;;;;;;6.45;2.00;;;20.60;69.80;;;;;;5071823;28;20222;-78
2022/09/14 07:31:48;;;;;;;8.23;1.77;;;20.60;70.10;;;;;;5069330;28;20233;-76
2022/09/14 07:34:18;;;;;;;5.28;2.10;;;20.70;69.80;;;;;;5070195;28;20190;-75
2022/09/14 07:36:46;;;;;;;7.00;2.03;;;20.70;69.40;;;;;;5070182;28;20195;-75
2022/09/14 07:39:16;;;;;;;7.18;2.40;;;20.80;69.40;;;;;;5066101;28;20248;-74
2022/09/14 07:41:44;;;;;;;9.25;1.90;;;20.90;69.10;;;;;;5068117;28;20198;-74
2022/09/14 07:44:16;;;;;;;9.77;2.28;;;20.90;69.10;;;;;;5064256;28;20733;-74
2022/09/14 07:46:45;;;;;;;7.53;1.98;;;21.00;68.60;;;;;;5066208;28;20655;-74
2022/09/14 07:49:15;;;;;;;5.97;2.08;;;21.00;68.10;;;;;;5066067;28;20905;-75
2022/09/14 07:51:43;;;;;;;8.63;2.22;;;21.10;68.10;;;;;;5070518;28;20245;-74
2022/09/14 07:54:13;;;;;;;6.82;2.15;;;21.10;68.00;;;;;;5067380;28;20190;-75
2022/09/14 07:56:44;;;;;;;6.85;1.88;;;21.20;69.10;;;;;;5065014;28;20206;-75
2022/09/14 07:59:14;;;;;;;7.97;2.08;;;21.20;67.90;;;;;;5070245;28;20190;-75
2022/09/14 08:02:03;;;;;;;5.45;2.08;;;21.30;67.90;;;;;;5072674;28;20726;-74
2022/09/14 08:04:31;;;;;;;10.45;3.22;;;21.40;67.90;;;;;;5068323;28;20195;-75
2022/09/14 08:07:00;;;;;;;6.15;1.88;;;21.50;67.70;;;;;;5070177;28;20225;-74
2022/09/14 08:09:29;;;;;;;9.13;2.13;;;21.50;67.60;;;;;;5071173;28;20206;-75
2022/09/14 08:11:57;;;;;;;7.25;1.95;;;21.60;67.50;;;;;;5068838;28;20257;-75
2022/09/14 08:14:27;;;;;;;6.10;1.95;;;21.70;67.40;;;;;;5069319;28;20226;-75
2022/09/14 08:16:56;;;;;;;6.97;1.85;;;21.70;67.10;;;;;;5070537;28;20199;-75
2022/09/14 08:19:25;;;;;;;3.58;1.75;;;21.80;66.90;;;;;;5068432;28;20191;-74
2022/09/14 08:21:53;;;;;;;12.10;2.15;;;21.80;66.50;;;;;;5072242;28;20240;-74
2022/09/14 08:24:22;;;;;;;5.55;2.20;;;21.90;66.50;;;;;;5068451;28;20675;-75
2022/09/14 08:26:50;;;;;;;6.03;2.05;;;21.90;66.50;;;;;;5071255;28;20214;-75
2022/09/14 08:29:19;;;;;;;4.22;1.60;;;22.00;66.30;;;;;;5069504;28;20273;-74
2022/09/14 08:31:50;;;;;;;3.92;1.50;;;22.00;66.10;;;;;;5068402;28;20313;-74
2022/09/14 08:34:19;;;;;;;3.92;1.80;;;22.10;65.30;;;;;;5068349;28;20226;-75
2022/09/14 08:36:48;;;;;;;6.50;2.72;;;22.10;65.10;;;;;;5070253;28;20187;-74
2022/09/14 08:39:17;;;;;;;8.07;1.90;;;22.20;65.30;;;;;;5065806;28;20225;-75
2022/09/14 08:41:51;;;;;;;3.53;1.58;;;22.30;65.40;;;;;;5067252;28;20190;-74
2022/09/14 08:44:25;;;;;;;8.90;1.92;;;22.30;65.50;;;;;;5067503;28;20548;-76
2022/09/14 08:47:01;;;;;;;6.20;1.42;;;22.40;65.70;;;;;;5067566;28;20224;-76
2022/09/14 08:49:47;;;;;;;3.58;1.70;;;22.40;65.20;;;;;;5067871;28;20560;-77
2022/09/14 08:52:25;;;;;;;2.40;1.40;;;22.50;65.10;;;;;;5062518;28;20202;-76
2022/09/14 08:54:56;;;;;;;3.88;1.80;;;22.60;65.10;;;;;;5065932;28;20229;-75
2022/09/14 08:57:32;;;;;;;4.75;1.88;;;22.70;65.10;;;;;;5064556;28;20186;-75
2022/09/14 09:00:09;;;;;;;8.55;2.00;;;22.80;64.80;;;;;;5067974;28;20255;-74
2022/09/14 09:03:06;;;;;;;6.72;1.90;;;22.80;64.80;;;;;;5066759;28;20182;-73
2022/09/14 09:05:38;;;;;;;2.95;1.70;;;22.90;64.40;;;;;;5063322;28;20194;-77
2022/09/14 09:08:17;;;;;;;4.45;1.92;;;22.90;64.20;;;;;;5067808;28;20647;-74
2022/09/14 09:10:47;;;;;;;5.57;2.05;;;23.00;63.50;;;;;;5068141;28;20572;-75
2022/09/14 09:13:20;;;;;;;7.05;1.98;;;23.00;63.60;;;;;;5060946;28;20708;-75
2022/09/14 09:15:51;;;;;;;4.10;2.00;;;23.10;63.60;;;;;;5062157;28;20183;-75
2022/09/14 09:18:30;;;;;;;7.60;2.17;;;23.20;63.60;;;;;;5062954;28;20590;-74
2022/09/14 09:21:02;;;;;;;6.43;2.28;;;23.10;63.10;;;;;;5069408;28;20241;-75
2022/09/14 09:23:32;;;;;;;4.60;2.03;;;23.20;62.90;;;;;;5058285;28;20199;-77
2022/09/14 09:26:04;;;;;;;4.57;2.10;;;23.30;63.00;;;;;;5068520;28;20438;-75
2022/09/14 09:28:33;;;;;;;4.35;1.83;;;23.40;63.10;;;;;;5065147;28;20265;-75
2022/09/14 09:31:06;;;;;;;4.50;2.03;;;23.40;63.20;;;;;;5065756;28;20299;-75
2022/09/14 09:33:42;;;;;;;4.35;1.85;;;23.50;63.40;;;;;;5066921;28;20190;-75
2022/09/14 09:36:14;;;;;;;6.20;1.60;;;23.50;62.50;;;;;;5067920;28;20244;-75
2022/09/14 09:38:43;;;;;;;5.00;2.03;;;23.60;62.70;;;;;;5070999;28;20190;-74
2022/09/14 09:41:17;;;;;;;4.85;2.10;;;23.60;62.50;;;;;;5065148;28;20216;-75
2022/09/14 09:43:59;;;;;;;5.47;1.80;;;23.70;62.50;;;;;;5063332;28;20199;-74
2022/09/14 09:46:28;;;;;;;4.90;1.75;;;23.80;62.80;;;;;;5066389;28;20186;-75
2022/09/14 09:49:02;;;;;;;6.57;2.22;;;23.80;61.40;;;;;;5068936;28;20244;-74
2022/09/14 09:51:31;;;;;;;3.92;2.00;;;23.80;61.00;;;;;;5062873;28;20877;-75
2022/09/14 09:54:07;;;;;;;4.80;2.33;;;23.90;60.80;;;;;;5072699;28;20221;-74
2022/09/14 09:56:41;;;;;;;5.55;1.92;;;23.90;60.90;;;;;;5057503;28;21896;-73
2022/09/14 09:59:30;;;;;;;2.80;1.63;;;24.00;60.30;;;;;;5062831;28;20236;-75
2022/09/14 10:02:21;;;;;;;3.92;1.33;;;24.00;60.40;;;;;;5061774;28;20191;-74
2022/09/14 10:05:00;;;;;;;7.47;1.63;;;24.10;59.90;;;;;;5069509;28;20182;-75
2022/09/14 10:07:30;;;;;;;3.15;1.50;;;24.20;59.80;;;;;;5064334;28;20655;-75
2022/09/14 10:10:01;;;;;;;3.88;1.48;;;24.20;59.20;;;;;;5063063;28;20191;-76
2022/09/14 10:12:30;;;;;;;1.88;1.33;;;24.30;58.90;;;;;;5064473;28;20711;-75
2022/09/14 10:15:15;;;;;;;5.25;1.48;;;24.30;59.20;;;;;;5069028;28;20875;-75
2022/09/14 10:17:55;;;;;;;2.80;1.40;;;24.40;58.40;;;;;;5060941;28;20222;-75
2022/09/14 10:20:26;;;;;;;3.38;1.48;;;24.50;58.30;;;;;;5064118;28;21985;-76
2022/09/14 10:22:54;;;;;;;2.47;1.40;;;24.50;58.20;;;;;;5061783;28;20230;-75
2022/09/14 10:25:25;;;;;;;3.45;1.27;;;24.60;58.00;;;;;;5063024;28;20244;-77
2022/09/14 10:28:00;;;;;;;2.22;1.23;;;24.70;57.10;;;;;;5062966;28;20292;-74
2022/09/14 10:30:34;;;;;;;4.72;1.50;;;24.70;56.60;;;;;;5068695;28;20294;-74
2022/09/14 10:33:05;;;;;;;3.03;1.67;;;24.80;56.70;;;;;;5067552;28;20221;-74
2022/09/14 10:35:46;;;;;;;3.03;1.50;;;24.90;56.50;;;;;;5071266;28;20606;-76
2022/09/14 10:38:30;;;;;;;4.13;1.75;;;24.90;54.60;;;;;;5071591;28;20221;-74
2022/09/14 10:41:23;;;;;;;3.50;1.40;;;25.00;54.00;;;;;;5068815;28;20243;-72
2022/09/14 10:44:18;;;;;;;2.88;1.20;;;25.00;53.50;;;;;;5064901;28;20235;-74
2022/09/14 10:47:00;;;;;;;2.38;1.30;;;25.10;52.20;;;;;;5057062;28;20197;-74
2022/09/14 10:49:46;;;;;;;3.95;1.60;;;25.10;51.80;;;;;;5071716;28;20236;-75
2022/09/14 10:52:24;;;;;;;4.80;1.40;;;25.20;52.60;;;;;;5069763;28;20210;-74
2022/09/14 10:55:30;;;;;;;2.55;1.23;;;25.20;52.00;;;;;;5069252;28;20236;-75
2022/09/14 10:58:07;;;;;;;2.70;1.40;;;25.30;52.40;;;;;;5070012;28;20190;-74
2022/09/14 11:00:52;;;;;;;4.50;1.20;;;25.40;52.60;;;;;;5070770;28;20190;-73
2022/09/14 11:03:30;;;;;;;4.15;1.15;;;25.40;52.50;;;;;;5073100;28;20186;-73
2022/09/14 11:06:12;;;;;;;3.58;1.20;;;25.50;52.00;;;;;;5066886;28;20194;-75
2022/09/14 11:08:46;;;;;;;6.13;1.13;;;25.60;52.40;;;;;;5063923;28;20252;-74
2022/09/14 11:11:38;;;;;;;5.22;1.13;;;25.60;52.30;;;;;;5068626;28;20185;-74
2022/09/14 11:14:20;;;;;;;2.22;1.13;;;25.70;52.30;;;;;;5062736;28;20194;-74
2022/09/14 11:17:13;;;;;;;2.83;1.13;;;25.70;51.40;;;;;;5072307;28;20244;-74
2022/09/14 11:19:48;;;;;;;1.63;0.88;;;25.80;51.40;;;;;;5069945;28;20187;-74
2022/09/14 11:22:25;;;;;;;3.17;1.38;;;25.80;51.20;;;;;;5061949;28;20255;-74
2022/09/14 11:24:59;;;;;;;2.75;1.10;;;25.80;50.70;;;;;;5060634;28;20217;-74
2022/09/14 11:27:32;;;;;;;2.10;1.20;;;25.90;50.60;;;;;;5065472;28;20733;-75
2022/09/14 11:30:05;;;;;;;4.47;1.30;;;26.00;51.20;;;;;;5074373;28;20861;-73
2022/09/14 11:32:37;;;;;;;2.63;1.20;;;26.00;50.50;;;;;;5060812;28;20203;-75
2022/09/14 11:35:17;;;;;;;3.33;1.00;;;26.10;49.60;;;;;;5065721;28;20187;-74
2022/09/14 11:37:49;;;;;;;1.77;0.90;;;26.10;49.80;;;;;;5061297;28;20642;-74
2022/09/14 11:40:23;;;;;;;4.40;1.10;;;26.20;49.40;;;;;;5073208;28;20236;-74
2022/09/14 11:42:58;;;;;;;5.88;1.20;;;26.20;49.10;;;;;;5067173;28;20185;-75
2022/09/14 11:45:31;;;;;;;2.15;0.90;;;26.20;48.60;;;;;;5062707;28;20261;-74
2022/09/14 11:48:10;;;;;;;1.67;0.95;;;26.30;48.60;;;;;;5061201;28;20224;-75
2022/09/14 11:51:14;;;;;;;1.77;1.05;;;26.30;48.80;;;;;;5064103;28;20202;-74
2022/09/14 11:53:43;;;;;;;4.10;1.52;;;26.40;48.30;;;;;;5068409;28;20322;-75
2022/09/14 11:56:25;;;;;;;6.05;1.02;;;26.40;48.20;;;;;;5070727;28;20226;-76
2022/09/14 11:58:56;;;;;;;1.95;1.00;;;26.50;48.00;;;;;;5069559;28;20745;-75
2022/09/14 12:01:30;;;;;;;3.00;1.35;;;26.50;48.10;;;;;;5069373;28;20560;-74
2022/09/14 12:04:17;;;;;;;2.00;1.13;;;26.60;47.80;;;;;;5067349;28;20563;-75
2022/09/14 12:06:56;;;;;;;2.13;0.95;;;26.70;47.90;;;;;;5070353;28;20210;-75
2022/09/14 12:10:14;;;;;;;4.68;1.00;;;26.70;47.90;;;;;;5063835;28;20283;-74
2022/09/14 12:12:45;;;;;;;2.38;1.00;;;26.80;48.10;;;;;;5065805;28;20574;-75
2022/09/14 12:15:22;;;;;;;4.22;1.25;;;26.80;48.30;;;;;;5068662;28;20190;-74
2022/09/14 12:17:51;;;;;;;2.03;1.10;;;27.00;48.50;;;;;;5067067;28;20281;-74
2022/09/14 12:20:37;;;;;;;1.80;1.08;;;27.00;48.40;;;;;;5071376;28;20267;-75
2022/09/14 12:23:21;;;;;;;5.72;1.30;;;27.00;47.90;;;;;;5056826;28;20540;-75
2022/09/14 12:26:10;;;;;;;3.20;1.40;;;27.10;48.10;;;;;;5069449;28;20225;-75
2022/09/14 12:28:47;;;;;;;2.58;1.30;;;27.10;48.20;;;;;;5063276;28;20604;-73
2022/09/14 12:31:35;;;;;;;2.38;1.20;;;27.20;48.10;;;;;;5067818;28;20194;-76
2022/09/14 12:34:25;;;;;;;2.45;1.15;;;27.20;47.90;;;;;;5064791;28;20213;-75
2022/09/14 12:37:03;;;;;;;1.45;0.90;;;27.20;47.90;;;;;;5066457;28;20256;-75
2022/09/14 12:39:38;;;;;;;5.32;1.23;;;27.30;47.70;;;;;;5063990;28;20190;-74
2022/09/14 12:42:28;;;;;;;6.18;1.40;;;27.30;46.20;;;;;;5073183;28;20194;-75
2022/09/14 12:44:58;;;;;;;2.10;1.20;;;27.30;46.80;;;;;;5070394;28;20645;-75
2022/09/14 12:47:57;;;;;;;2.08;0.95;;;27.40;46.90;;;;;;5064669;28;20285;-73
2022/09/14 12:50:32;;;;;;;2.67;1.27;;;27.40;46.90;;;;;;5066702;28;20260;-76
2022/09/14 12:53:16;;;;;;;2.55;1.17;;;27.40;45.90;;;;;;5063542;28;20218;-75
2022/09/14 12:55:54;;;;;;;2.45;1.35;;;27.40;46.10;;;;;;5068371;28;20705;-75
2022/09/14 12:58:55;;;;;;;2.03;1.17;;;27.40;46.50;;;;;;5069938;28;20241;-75
2022/09/14 13:01:43;;;;;;;3.08;1.20;;;27.40;46.00;;;;;;5064617;28;20604;-76
2022/09/14 13:04:15;;;;;;;1.55;1.10;;;27.50;46.20;;;;;;5061090;28;20708;-76
2022/09/14 13:06:46;;;;;;;2.22;0.80;;;27.50;46.10;;;;;;5062732;28;20194;-76
2022/09/14 13:09:20;;;;;;;2.38;1.30;;;27.60;46.00;;;;;;5063400;28;20186;-76
2022/09/14 13:11:54;;;;;;;6.90;1.58;;;27.60;45.90;;;;;;5064904;28;20198;-77
2022/09/14 13:14:25;;;;;;;2.33;0.90;;;27.60;44.40;;;;;;5068394;28;20227;-75
2022/09/14 13:16:57;;;;;;;1.98;0.93;;;27.70;45.50;;;;;;5067381;28;20268;-75